Time;durP1;ratioP1;P1;durP2;ratioP2;P2;SDS_P1;SDS_P2;PMS_P1;PMS_P2;Temp;Humidity;BMP_temperature;BMP_pressure;BME280_temperature;BME280_humidity;BME280_pressure;Samples;Min_cycle;Max_cycle;Signal;HPM_P1;HPM_P2
2022/10/04 00:00:35;;;;;;;6.15;2.83;;;;;;;10.75;100.00;100688.41;5032254;28;20562;-72
2022/10/04 00:03:24;;;;;;;8.85;2.15;;;;;;;10.76;100.00;100678.56;5020057;28;20513;-74
2022/10/04 00:05:54;;;;;;;6.47;1.90;;;;;;;10.76;100.00;100686.34;5033263;28;20095;-74
2022/10/04 00:08:29;;;;;;;10.75;2.63;;;;;;;10.77;100.00;100685.88;5032277;28;20144;-75
2022/10/04 00:11:11;;;;;;;9.50;2.53;;;;;;;10.75;100.00;100687.63;5032294;28;20029;-76
2022/10/04 00:13:37;;;;;;;;;;;;;;;10.76;100.00;100681.44;5034112;28;20033;-74
2022/10/04 00:16:02;;;;;;;7.03;2.28;;;;;;;10.71;100.00;100679.25;5032381;28;19916;-75
2022/10/04 00:18:31;;;;;;;11.23;2.58;;;;;;;10.78;100.00;100676.00;5032178;28;20528;-75
2022/10/04 00:21:02;;;;;;;5.82;2.20;;;;;;;10.79;100.00;100677.59;5015591;28;20124;-75
2022/10/04 00:23:40;;;;;;;10.27;2.22;;;;;;;10.82;100.00;100676.63;5015890;28;20108;-75
2022/10/04 00:26:12;;;;;;;8.05;2.67;;;;;;;10.85;100.00;100674.88;5032030;28;20453;-75
2022/10/04 00:28:38;;;;;;;10.52;2.22;;;;;;;10.83;100.00;100672.47;5032291;28;20032;-76
2022/10/04 00:31:19;;;;;;;8.82;2.83;;;;;;;10.86;100.00;100671.53;5033327;28;20100;-75
2022/10/04 00:33:46;;;;;;;12.30;2.42;;;;;;;10.84;100.00;100661.84;5033217;28;20032;-75
2022/10/04 00:36:49;;;;;;;15.43;2.72;;;;;;;10.86;100.00;100682.16;5033606;28;20533;-75
2022/10/04 00:39:23;;;;;;;7.20;2.13;;;;;;;10.84;100.00;100671.22;4986315;28;20041;-75
2022/10/04 00:41:48;;;;;;;9.70;2.50;;;;;;;10.88;100.00;100659.59;5015583;28;20363;-74
2022/10/04 00:44:33;;;;;;;10.38;2.58;;;;;;;10.87;100.00;100667.41;5033519;28;20540;-75
2022/10/04 00:47:01;;;;;;;7.80;1.73;;;;;;;10.77;100.00;100660.16;5048703;28;20076;-74
2022/10/04 00:49:39;;;;;;;8.20;2.60;;;;;;;10.76;100.00;100663.50;5031888;28;20026;-75
2022/10/04 00:52:15;;;;;;;10.52;1.85;;;;;;;10.75;100.00;100659.03;5032816;28;20026;-74
2022/10/04 00:54:43;;;;;;;7.32;2.35;;;;;;;10.77;100.00;100659.34;5032141;28;20028;-74
2022/10/04 00:57:31;;;;;;;10.60;1.95;;;;;;;10.73;100.00;100656.66;5031009;28;20473;-74
2022/10/04 01:00:02;;;;;;;11.70;2.50;;;;;;;10.70;100.00;100659.69;5027943;28;20037;-75
2022/10/04 01:02:32;;;;;;;7.72;2.15;;;;;;;10.68;100.00;100660.19;5034107;28;20048;-75
2022/10/04 01:05:00;;;;;;;11.98;2.05;;;;;;;10.67;100.00;100658.63;5018499;28;20021;-75
2022/10/04 01:07:47;;;;;;;7.53;1.75;;;;;;;10.57;100.00;100653.44;5035651;28;20028;-75
2022/10/04 01:10:19;;;;;;;5.10;1.85;;;;;;;10.46;100.00;100659.69;5018881;28;20033;-75
2022/10/04 01:12:51;;;;;;;6.53;1.95;;;;;;;10.37;100.00;100659.72;5018088;28;20112;-76
2022/10/04 01:15:42;;;;;;;9.80;2.65;;;;;;;10.31;100.00;100661.66;5018402;28;20079;-75
2022/10/04 01:18:27;;;;;;;10.45;2.35;;;;;;;10.23;100.00;100658.38;5036074;28;20389;-74
2022/10/04 01:21:03;;;;;;;9.57;2.25;;;;;;;10.15;100.00;100654.25;5016730;28;20436;-74
2022/10/04 01:23:32;;;;;;;8.57;2.75;;;;;;;10.08;100.00;100658.25;5034162;28;20021;-75
2022/10/04 01:25:57;;;;;;;9.90;2.05;;;;;;;10.04;100.00;100662.53;5033028;28;20091;-75
2022/10/04 01:28:24;;;;;;;6.45;2.13;;;;;;;10.02;100.00;100660.19;5033159;28;20025;-75
2022/10/04 01:30:49;;;;;;;9.82;2.05;;;;;;;9.99;100.00;100658.25;5033274;28;20033;-74
2022/10/04 01:33:15;;;;;;;5.57;1.90;;;;;;;9.99;100.00;100663.97;5016568;28;20025;-75
2022/10/04 01:35:40;;;;;;;20.13;2.55;;;;;;;9.94;100.00;100652.44;5017960;28;20026;-73
2022/10/04 01:38:06;;;;;;;7.00;2.10;;;;;;;10.09;100.00;100667.59;5051493;28;20040;-75
2022/10/04 01:40:33;;;;;;;10.90;2.20;;;;;;;10.07;100.00;100667.28;5035214;28;20104;-74
2022/10/04 01:43:03;;;;;;;13.10;2.97;;;;;;;10.06;100.00;100672.22;5034884;28;20064;-74
2022/10/04 01:45:44;;;;;;;6.80;2.20;;;;;;;10.13;100.00;100668.22;5034831;28;20446;-75
2022/10/04 01:48:12;;;;;;;7.05;2.50;;;;;;;10.15;100.00;100670.59;5018269;28;20482;-75
2022/10/04 01:50:50;;;;;;;6.70;2.75;;;;;;;10.21;100.00;100663.75;5034797;28;20021;-75
2022/10/04 01:53:28;;;;;;;7.50;2.30;;;;;;;10.24;100.00;100662.78;5034993;28;20025;-75
2022/10/04 01:56:07;;;;;;;11.52;2.22;;;;;;;10.26;100.00;100659.44;5034582;28;20035;-75
2022/10/04 01:58:40;;;;;;;7.88;2.47;;;;;;;10.27;100.00;100658.97;5018090;28;20121;-75
2022/10/04 02:01:23;;;;;;;9.10;1.95;;;;;;;10.30;100.00;100663.72;5034545;28;20057;-75
2022/10/04 02:04:21;;;;;;;11.30;2.50;;;;;;;10.34;100.00;100670.03;5018096;28;20425;-76
2022/10/04 02:06:52;;;;;;;11.02;2.45;;;;;;;10.30;100.00;100672.28;5032580;28;20037;-75
2022/10/04 02:09:21;;;;;;;11.45;2.10;;;;;;;10.28;100.00;100668.34;5018323;28;20112;-75
2022/10/04 02:11:51;;;;;;;10.30;3.10;;;;;;;10.21;100.00;100660.09;5034405;28;20025;-76
2022/10/04 02:14:19;;;;;;;10.40;2.10;;;;;;;10.14;100.00;100666.94;5002301;28;20104;-75
2022/10/04 02:16:46;;;;;;;5.97;2.28;;;;;;;10.07;100.00;100665.22;5017734;28;20025;-74
2022/10/04 02:19:13;;;;;;;8.35;2.88;;;;;;;10.03;100.00;100670.34;5034335;28;20075;-74
2022/10/04 02:21:39;;;;;;;6.47;2.83;;;;;;;9.99;100.00;100661.13;5034168;28;20112;-75
2022/10/04 02:24:06;;;;;;;9.43;2.67;;;;;;;9.93;100.00;100663.06;5034375;28;20048;-75
2022/10/04 02:26:31;;;;;;;7.90;2.78;;;;;;;9.92;100.00;100661.47;5017429;28;20107;-74
2022/10/04 02:28:57;;;;;;;8.93;2.35;;;;;;;9.86;100.00;100663.38;5034230;28;20025;-74
2022/10/04 02:34:07;;;;;;;6.75;2.85;;;;;;;9.89;100.00;100668.13;5035040;28;20548;-76
2022/10/04 02:36:34;;;;;;;8.27;2.50;;;;;;;9.82;100.00;100665.63;5017379;28;20026;-75
2022/10/04 02:39:14;;;;;;;13.43;3.50;;;;;;;9.80;100.00;100665.28;5034143;28;20030;-75
2022/10/04 02:41:46;;;;;;;11.48;3.08;;;;;;;9.78;100.00;100667.06;5034027;28;20036;-75
2022/10/04 02:44:19;;;;;;;9.80;2.50;;;;;;;9.79;100.00;100666.56;5017225;28;20021;-74
2022/10/04 02:46:56;;;;;;;12.20;3.00;;;;;;;9.78;100.00;100664.19;5017076;28;20055;-75
2022/10/04 02:49:57;;;;;;;7.38;2.60;;;;;;;9.74;100.00;100667.22;5033567;28;20484;-75
2022/10/04 02:52:33;;;;;;;6.43;3.35;;;;;;;9.69;100.00;100662.13;4922722;29;20531;-74
2022/10/04 02:55:18;;;;;;;9.80;2.72;;;;;;;9.66;100.00;100665.94;5003948;28;20547;-75
2022/10/04 02:57:44;;;;;;;6.50;3.15;;;;;;;9.68;100.00;100672.75;5033472;28;20071;-74
2022/10/04 03:00:13;;;;;;;6.00;3.05;;;;;;;9.68;100.00;100663.41;5033489;28;20445;-75
2022/10/04 03:02:38;;;;;;;15.85;4.15;;;;;;;9.68;100.00;100672.75;5034860;28;20473;-75
2022/10/04 03:05:10;;;;;;;11.25;2.60;;;;;;;9.63;100.00;100672.59;5033552;28;20028;-74
2022/10/04 03:07:36;;;;;;;9.40;3.00;;;;;;;9.61;100.00;100675.13;5033665;28;20362;-75
2022/10/04 03:10:07;;;;;;;9.32;3.60;;;;;;;9.59;100.00;100677.69;5033753;28;20032;-74
2022/10/04 03:12:33;;;;;;;12.48;3.47;;;;;;;9.55;100.00;100663.56;5033641;28;20067;-74
2022/10/04 03:14:59;;;;;;;4.65;2.58;;;;;;;9.51;100.00;100662.94;5049837;28;20540;-74
2022/10/04 03:17:24;;;;;;;10.30;2.58;;;;;;;9.53;100.00;100668.97;5033106;28;20079;-75
2022/10/04 03:19:50;;;;;;;10.32;3.00;;;;;;;9.52;100.00;100667.38;5034241;28;20028;-74
2022/10/04 03:22:15;;;;;;;11.80;3.72;;;;;;;9.52;100.00;100658.03;5015839;28;20029;-74
2022/10/04 03:24:50;;;;;;;9.80;3.15;;;;;;;9.46;100.00;100666.44;5032759;28;20381;-74
2022/10/04 03:27:21;;;;;;;7.20;3.03;;;;;;;9.46;100.00;100669.28;5016455;28;20537;-74
2022/10/04 03:29:49;;;;;;;12.27;3.25;;;;;;;9.47;100.00;100667.22;5032967;28;20033;-77
2022/10/04 03:32:15;;;;;;;10.00;3.33;;;;;;;9.43;100.00;100658.84;5033006;28;20043;-75
2022/10/04 03:34:49;;;;;;;7.25;2.75;;;;;;;9.41;100.00;100667.06;5033046;28;20033;-76
2022/10/04 03:37:15;;;;;;;10.88;2.80;;;;;;;9.39;100.00;100663.13;5032838;28;20026;-74
2022/10/04 03:39:53;;;;;;;9.57;3.60;;;;;;;9.38;100.00;100664.38;5016286;28;20021;-75
2022/10/04 03:42:21;;;;;;;10.55;3.47;;;;;;;9.36;100.00;100667.69;5032814;28;20036;-74
2022/10/04 03:44:49;;;;;;;7.40;2.88;;;;;;;9.33;100.00;100668.66;5016501;28;20022;-75
2022/10/04 03:47:25;;;;;;;8.90;3.15;;;;;;;9.30;100.00;100671.69;5033745;28;20378;-74
2022/10/04 03:49:53;;;;;;;11.02;3.50;;;;;;;9.29;100.00;100670.09;5032847;28;20024;-75
2022/10/04 03:52:25;;;;;;;9.82;3.20;;;;;;;9.25;100.00;100673.88;5032863;28;20577;-75
2022/10/04 03:54:52;;;;;;;9.60;3.03;;;;;;;9.21;100.00;100673.25;5032379;28;20025;-74
2022/10/04 03:57:18;;;;;;;12.07;3.75;;;;;;;9.23;100.00;100670.72;5016141;28;20075;-75
2022/10/04 03:59:43;;;;;;;8.25;3.00;;;;;;;9.21;100.00;100678.16;5032362;28;20026;-74
2022/10/04 04:02:18;;;;;;;9.15;3.53;;;;;;;9.27;100.00;100685.59;5032221;28;20035;-75
2022/10/04 04:05:03;;;;;;;13.27;3.75;;;;;;;9.31;100.00;100684.66;5033754;28;20079;-75
2022/10/04 04:07:36;;;;;;;11.65;3.63;;;;;;;9.34;100.00;100683.72;5032497;28;20022;-75
2022/10/04 04:10:04;;;;;;;13.18;4.38;;;;;;;9.39;100.00;100678.16;5015680;28;20025;-75
2022/10/04 04:12:38;;;;;;;7.13;3.75;;;;;;;9.41;100.00;100680.53;5032248;28;20028;-74
2022/10/04 04:15:06;;;;;;;8.20;3.03;;;;;;;9.40;100.00;100679.72;5015775;28;20034;-75
2022/10/04 04:17:43;;;;;;;11.80;3.10;;;;;;;9.37;100.00;100680.69;5032551;28;20030;-75
2022/10/04 04:20:19;;;;;;;11.18;4.20;;;;;;;9.35;100.00;100676.75;5032262;28;20025;-74
2022/10/04 04:22:55;;;;;;;10.23;3.95;;;;;;;9.32;100.00;100681.31;5015515;28;20022;-75
2022/10/04 04:25:33;;;;;;;6.93;3.55;;;;;;;9.24;100.00;100680.06;5015388;28;20045;-75
2022/10/04 04:28:27;;;;;;;9.65;3.70;;;;;;;9.21;100.00;100689.56;5015787;28;20045;-75
2022/10/04 04:30:59;;;;;;;12.63;3.65;;;;;;;9.21;100.00;100692.41;5021152;28;20172;-75
2022/10/04 04:33:42;;;;;;;9.65;3.28;;;;;;;9.19;100.00;100695.75;5034203;28;20120;-74
2022/10/04 04:36:14;;;;;;;13.57;3.95;;;;;;;9.16;100.00;100685.28;5004518;28;20057;-74
2022/10/04 04:39:32;;;;;;;;;;;;;;;9.16;100.00;100693.03;5038018;28;20036;-74
2022/10/04 04:41:27;;;;;;;11.00;4.38;;;;;;;9.12;100.00;100687.50;5034830;28;19916;-73
2022/10/04 04:43:54;;;;;;;11.75;3.58;;;;;;;9.06;100.00;100683.69;5036364;28;20119;-75
2022/10/04 04:46:21;;;;;;;8.90;3.58;;;;;;;9.02;100.00;100682.25;5052661;28;20178;-74
2022/10/04 04:49:01;;;;;;;13.95;4.25;;;;;;;9.03;100.00;100686.69;5035873;28;20030;-74
2022/10/04 04:51:27;;;;;;;11.32;3.83;;;;;;;9.00;100.00;100693.34;5035955;28;20105;-74
2022/10/04 04:53:54;;;;;;;12.75;5.13;;;;;;;8.98;100.00;100704.41;5002947;28;20474;-73
2022/10/04 04:56:22;;;;;;;20.30;4.70;;;;;;;8.99;100.00;100703.94;5019300;28;20064;-74
2022/10/04 04:58:50;;;;;;;11.70;4.70;;;;;;;8.99;100.00;100706.81;5036051;28;20041;-74
2022/10/04 05:01:40;;;;;;;17.13;5.28;;;;;;;9.00;100.00;100708.38;5002912;28;20121;-73
2022/10/04 05:04:13;;;;;;;18.27;4.78;;;;;;;9.03;100.00;100709.50;5036734;28;20107;-76
2022/10/04 05:06:42;;;;;;;11.88;4.55;;;;;;;9.07;100.00;100708.06;5037310;28;20095;-77
2022/10/04 05:09:29;;;;;;;12.65;5.18;;;;;;;9.10;100.00;100712.06;5036771;28;20540;-75
2022/10/04 05:12:17;;;;;;;21.08;4.80;;;;;;;9.11;100.00;100716.47;5019053;28;20041;-74
2022/10/04 05:14:51;;;;;;;11.02;4.30;;;;;;;9.09;100.00;100716.97;5036279;28;20029;-73
2022/10/04 05:17:24;;;;;;;12.93;4.75;;;;;;;9.09;100.00;100719.00;5035658;28;20033;-75
2022/10/04 05:19:59;;;;;;;12.63;3.42;;;;;;;9.11;100.00;100719.31;5035487;28;20025;-75
2022/10/04 05:22:25;;;;;;;10.82;4.15;;;;;;;9.12;100.00;100724.56;5018744;28;20036;-75
2022/10/04 05:25:03;;;;;;;15.13;4.25;;;;;;;9.12;100.00;100721.69;5017805;28;20046;-76
2022/10/04 05:27:41;;;;;;;12.43;3.47;;;;;;;9.17;100.00;100725.97;5035090;28;20127;-76
2022/10/04 05:30:26;;;;;;;8.00;4.13;;;;;;;9.19;100.00;100732.03;5036075;28;20025;-75
2022/10/04 05:33:06;;;;;;;21.58;4.32;;;;;;;9.22;100.00;100733.91;5035201;28;20032;-74
2022/10/04 05:36:20;;;;;;;12.23;3.95;;;;;;;9.27;100.00;100736.94;5034978;28;20053;-75
2022/10/04 05:38:52;;;;;;;14.27;4.30;;;;;;;9.35;100.00;100745.97;4962747;28;20078;-76
2022/10/04 05:41:44;;;;;;;14.82;3.85;;;;;;;9.38;100.00;100742.19;5018486;28;20424;-76
2022/10/04 05:44:24;;;;;;;12.68;3.45;;;;;;;9.43;100.00;100757.88;5033075;28;20454;-77
2022/10/04 05:46:52;;;;;;;8.73;3.40;;;;;;;9.47;100.00;100755.66;5033446;28;20031;-75
2022/10/04 05:49:19;;;;;;;15.80;3.25;;;;;;;9.59;100.00;100754.72;5033019;28;20037;-76
2022/10/04 05:51:49;;;;;;;12.60;3.15;;;;;;;9.82;100.00;100748.38;5032574;28;20036;-76
2022/10/04 05:54:20;;;;;;;13.05;3.40;;;;;;;10.00;100.00;100745.50;5033549;28;20029;-77
2022/10/04 05:56:53;;;;;;;12.40;2.92;;;;;;;10.06;100.00;100754.22;5032623;28;20021;-78
2022/10/04 05:59:37;;;;;;;13.05;2.92;;;;;;;10.17;100.00;100762.28;5032376;28;20082;-76
2022/10/04 06:02:28;;;;;;;11.85;3.45;;;;;;;10.26;100.00;100767.97;5033737;28;20018;-75
2022/10/04 06:05:10;;;;;;;10.70;3.50;;;;;;;10.40;100.00;100770.97;5033846;28;20026;-77
2022/10/04 06:07:38;;;;;;;;;;;;;;;10.55;100.00;100771.88;5050564;28;20025;-76
2022/10/04 06:10:17;;;;;;;16.30;4.30;;;;;;;10.63;100.00;100778.03;5035580;28;20350;-76
2022/10/04 06:12:52;;;;;;;11.98;3.10;;;;;;;10.74;100.00;100778.31;5034271;28;20470;-76
2022/10/04 06:15:55;;;;;;;19.15;3.67;;;;;;;10.84;100.00;100785.56;5017931;28;20449;-75
2022/10/04 06:18:48;;;;;;;21.70;4.18;;;;;;;10.97;100.00;100777.56;5035519;28;20029;-79
2022/10/04 06:21:19;;;;;;;16.90;3.53;;;;;;;11.32;100.00;100782.81;5035197;28;20401;-76
2022/10/04 06:23:53;;;;;;;14.00;3.10;;;;;;;12.04;100.00;100780.66;5034217;28;20473;-77
2022/10/04 06:26:24;;;;;;;13.63;3.25;;;;;;;13.03;100.00;100784.50;5033801;28;20406;-75
2022/10/04 06:28:58;;;;;;;12.40;3.17;;;;;;;13.63;100.00;100780.13;5017603;28;20469;-77
2022/10/04 06:32:15;;;;;;;11.45;2.80;;;;;;;13.66;100.00;100781.19;5034195;28;20030;-77
2022/10/04 06:34:58;;;;;;;16.08;3.15;;;;;;;13.46;100.00;100790.56;4939393;29;20031;-75
2022/10/04 06:37:48;;;;;;;23.83;3.30;;;;;;;13.76;100.00;100789.16;5035248;28;20033;-75
2022/10/04 06:40:50;;;;;;;7.85;3.22;;;;;;;14.97;100.00;100790.91;5034956;28;20544;-74
2022/10/04 06:43:19;;;;;;;15.32;2.70;;;;;;;15.65;100.00;100790.84;5035099;28;20036;-74
2022/10/04 06:46:04;;;;;;;13.98;2.75;;;;;;;15.85;100.00;100794.88;5023723;28;20372;-76
2022/10/04 06:48:57;;;;;;;17.20;2.83;;;;;;;15.79;100.00;100808.47;4979008;28;20037;-75
2022/10/04 06:51:31;;;;;;;16.42;3.10;;;;;;;16.32;100.00;100811.25;5013221;28;20109;-75
2022/10/04 06:54:09;;;;;;;8.77;2.38;;;;;;;16.67;100.00;100807.16;5013391;28;20034;-76
2022/10/04 06:56:50;;;;;;;12.10;4.20;;;;;;;16.48;100.00;100812.59;5012475;28;20030;-75
2022/10/04 06:59:47;;;;;;;10.65;2.45;;;;;;;16.24;100.00;100818.84;5014202;28;20022;-77
2022/10/04 07:02:18;;;;;;;12.95;2.97;;;;;;;16.05;100.00;100814.88;5012725;28;20068;-74
2022/10/04 07:05:01;;;;;;;8.25;2.08;;;;;;;16.27;100.00;100823.56;5012667;28;20030;-76
2022/10/04 07:07:34;;;;;;;21.35;2.78;;;;;;;16.25;100.00;100823.31;5012880;28;20033;-76
2022/10/04 07:10:18;;;;;;;7.93;1.90;;;;;;;16.47;100.00;100829.13;5013057;28;20033;-75
2022/10/04 07:12:49;;;;;;;11.35;2.83;;;;;;;16.40;100.00;100831.75;5014339;28;20050;-75
2022/10/04 07:15:27;;;;;;;7.13;2.22;;;;;;;16.34;100.00;100833.81;4999470;28;20105;-74
2022/10/04 07:17:54;;;;;;;12.35;2.50;;;;;;;16.26;100.00;100844.28;4976913;28;20044;-74
2022/10/04 07:20:24;;;;;;;7.55;2.70;;;;;;;16.42;100.00;100827.00;4992682;28;20037;-74
2022/10/04 07:22:54;;;;;;;10.07;2.47;;;;;;;17.42;100.00;100832.84;4992876;28;20444;-74
2022/10/04 07:25:23;;;;;;;15.00;2.22;;;;;;;18.32;99.97;100839.16;4993738;28;20104;-74
2022/10/04 07:30:38;;;;;;;10.75;2.20;;;;;;;19.81;86.38;100847.09;4994598;28;20120;-74
2022/10/04 07:33:05;;;;;;;11.85;2.00;;;;;;;20.42;85.84;100846.34;4992163;28;20217;-76
2022/10/04 07:35:42;;;;;;;7.57;2.33;;;;;;;21.02;76.21;100851.81;4992802;28;20031;-74
2022/10/04 07:38:14;;;;;;;15.20;2.63;;;;;;;20.90;72.35;100856.22;4997881;28;20037;-75
2022/10/04 07:41:09;;;;;;;6.47;2.28;;;;;;;21.14;72.00;100851.06;5012310;28;20430;-77
2022/10/04 07:43:49;;;;;;;6.05;2.15;;;;;;;21.25;69.45;100850.88;5001137;28;20041;-76
2022/10/04 07:46:39;;;;;;;7.10;2.10;;;;;;;21.25;70.19;100853.00;5012950;28;20105;-77
2022/10/04 07:49:12;;;;;;;10.75;2.15;;;;;;;21.25;66.19;100853.78;5014403;28;20040;-78
2022/10/04 07:52:03;;;;;;;10.10;2.72;;;;;;;20.86;65.69;100865.28;4996353;28;20029;-77
2022/10/04 07:54:50;;;;;;;11.60;2.33;;;;;;;20.47;69.11;100862.13;5013839;28;20036;-75
2022/10/04 07:57:26;;;;;;;13.77;2.47;;;;;;;20.36;72.56;100858.03;4994004;28;20030;-77
2022/10/04 08:00:04;;;;;;;9.40;2.15;;;;;;;20.67;72.41;100861.56;5010574;28;20113;-76
2022/10/04 08:02:45;;;;;;;10.18;1.80;;;;;;;20.92;71.40;100863.06;5011761;28;20105;-75
2022/10/04 08:05:24;;;;;;;20.42;3.47;;;;;;;20.92;69.93;100857.25;5011736;28;20049;-75
2022/10/04 08:08:05;;;;;;;11.43;2.65;;;;;;;20.61;67.62;100870.38;4993857;28;20053;-75
2022/10/04 08:10:55;;;;;;;8.07;2.13;;;;;;;20.20;68.28;100869.91;5011622;28;20033;-75
2022/10/04 08:13:35;;;;;;;4.30;1.60;;;;;;;19.83;69.08;100874.25;5011554;28;20045;-76
2022/10/04 08:16:03;;;;;;;4.45;1.50;;;;;;;19.73;70.38;100873.03;5010505;28;20018;-76
2022/10/04 08:19:11;;;;;;;7.70;2.42;;;;;;;19.78;72.34;100874.31;5010380;28;20021;-76
2022/10/04 08:22:04;;;;;;;14.60;3.00;;;;;;;19.98;73.17;100873.06;5027952;28;20032;-77
2022/10/04 08:24:48;;;;;;;6.45;2.00;;;;;;;20.33;70.95;100870.75;5006207;28;20062;-77
2022/10/04 08:29:41;;;;;;;12.02;2.08;;;;;;;20.21;64.51;100883.84;5012364;28;20033;-77
2022/10/04 08:30:50;;;;;;;5.50;1.52;;;;;;;19.92;66.83;100888.38;5013301;28;20037;-77
2022/10/04 08:33:28;;;;;;;3.45;1.30;;;;;;;19.77;67.49;100890.91;5013538;28;20030;-74
2022/10/04 08:36:10;;;;;;;14.05;2.25;;;;;;;19.62;69.27;100884.75;4995809;28;20056;-76
2022/10/04 08:38:58;;;;;;;4.95;1.35;;;;;;;19.70;70.84;100890.75;5013552;28;20096;-75
2022/10/04 08:41:41;;;;;;;5.78;1.80;;;;;;;19.80;69.05;100886.16;5014033;28;20103;-75
2022/10/04 08:44:41;;;;;;;5.28;2.00;;;;;;;19.83;69.99;100893.75;5013709;28;20148;-76
2022/10/04 08:47:32;;;;;;;8.60;2.03;;;;;;;19.70;67.43;100894.44;5013277;28;20033;-75
2022/10/04 08:50:03;;;;;;;7.05;1.70;;;;;;;19.37;69.24;100895.53;5012055;28;20029;-77
2022/10/04 08:52:47;;;;;;;11.90;2.83;;;;;;;18.99;69.44;100891.59;5013596;28;20030;-75
2022/10/04 08:55:27;;;;;;;8.73;2.28;;;;;;;18.64;72.50;100897.38;5013339;28;20060;-76
2022/10/04 08:58:01;;;;;;;12.55;2.10;;;;;;;18.36;76.41;100885.16;5013616;28;20064;-77
2022/10/04 09:00:55;;;;;;;8.30;2.28;;;;;;;18.35;78.53;100883.56;5012006;28;20032;-76
2022/10/04 09:04:05;;;;;;;8.63;2.75;;;;;;;18.36;80.13;100879.38;5013219;28;20021;-75
2022/10/04 09:06:40;;;;;;;5.28;2.55;;;;;;;18.47;81.23;100883.00;4998214;28;20113;-77
2022/10/04 09:09:11;;;;;;;7.63;1.75;;;;;;;18.58;80.60;100882.91;5013473;28;20029;-77
2022/10/04 09:11:43;;;;;;;7.63;2.10;;;;;;;18.81;80.05;100882.78;5013511;28;20034;-75
2022/10/04 09:14:17;;;;;;;11.50;2.33;;;;;;;19.16;76.94;100891.50;5013294;28;20030;-76
2022/10/04 09:16:46;;;;;;;5.18;1.63;;;;;;;19.45;72.43;100896.53;5013583;28;20030;-76
2022/10/04 09:19:45;;;;;;;7.50;2.45;;;;;;;19.44;71.49;100903.66;5013356;28;20076;-74
2022/10/04 09:22:34;;;;;;;8.93;2.40;;;;;;;19.23;70.47;100910.41;5017230;28;20032;-77
2022/10/04 09:25:21;;;;;;;5.75;2.03;;;;;;;18.73;72.25;100913.63;5016975;28;20042;-77
2022/10/04 09:27:57;;;;;;;10.35;2.33;;;;;;;18.35;73.55;100909.63;5015802;28;20425;-77
2022/10/04 09:30:33;;;;;;;13.38;2.78;;;;;;;18.00;76.20;100905.25;4999069;28;20034;-74
2022/10/04 09:33:01;;;;;;;11.25;2.30;;;;;;;17.76;78.19;100905.06;4998968;28;20026;-76
2022/10/04 09:35:57;;;;;;;9.15;2.22;;;;;;;17.53;78.17;100915.09;5016921;28;20501;-77
2022/10/04 09:39:00;;;;;;;7.63;2.08;;;;;;;17.30;78.49;100917.16;5015712;28;20022;-76
2022/10/04 09:41:34;;;;;;;13.23;3.20;;;;;;;17.17;80.53;100908.22;5016757;28;20100;-77
2022/10/04 09:44:31;;;;;;;11.82;2.58;;;;;;;17.16;82.36;100913.22;5016856;28;20100;-76
2022/10/04 09:47:40;;;;;;;11.30;2.45;;;;;;;17.26;84.16;100900.09;5015421;28;20049;-77
2022/10/04 09:50:25;;;;;;;8.85;1.90;;;;;;;17.45;83.68;100909.03;4986811;28;20488;-76
2022/10/04 09:53:15;;;;;;;10.52;2.50;;;;;;;17.56;80.65;100914.81;5016700;28;20065;-75
2022/10/04 09:56:02;;;;;;;8.63;1.95;;;;;;;17.30;77.52;100920.03;5016434;28;20577;-75
2022/10/04 09:59:09;;;;;;;7.82;1.70;;;;;;;16.89;76.67;100925.53;5016749;28;20048;-76
2022/10/04 10:01:41;;;;;;;11.55;2.10;;;;;;;16.59;78.78;100916.53;5010488;28;20050;-76
2022/10/04 10:04:39;;;;;;;6.75;1.70;;;;;;;16.37;81.67;100928.75;5014992;28;20030;-76
2022/10/04 10:07:11;;;;;;;4.25;1.85;;;;;;;16.39;83.37;100916.72;5015261;28;20113;-76
2022/10/04 10:15:26;;;;;;;9.70;1.83;;;;;;;16.93;85.72;100915.31;5020763;28;20037;-75
2022/10/04 10:18:03;;;;;;;8.00;2.20;;;;;;;17.15;84.34;100916.63;4998561;28;20064;-77
2022/10/04 10:20:56;;;;;;;11.80;2.53;;;;;;;17.52;80.65;100920.06;5015258;28;20036;-76
2022/10/04 10:23:31;;;;;;;9.00;2.22;;;;;;;17.80;77.18;100926.59;5015865;28;20028;-76
2022/10/04 10:26:14;;;;;;;11.93;2.20;;;;;;;18.00;76.45;100931.28;5014411;28;20052;-77
2022/10/04 10:29:04;;;;;;;9.60;2.63;;;;;;;18.08;76.91;100934.44;5015751;28;20030;-76
2022/10/04 10:31:33;;;;;;;8.88;1.75;;;;;;;17.96;75.83;100939.44;5015565;28;20041;-77
2022/10/04 10:34:09;;;;;;;3.92;1.98;;;;;;;17.75;76.18;100938.16;5015839;28;20046;-76
2022/10/04 10:36:58;;;;;;;25.67;5.07;;;;;;;17.64;77.76;100943.94;5014518;28;20037;-76
2022/10/04 10:39:58;;;;;;;18.38;4.20;;;;;;;17.72;78.78;100940.03;5014362;28;20025;-75
2022/10/04 10:42:36;;;;;;;6.88;2.30;;;;;;;17.79;75.62;100947.34;5015636;28;20034;-77
2022/10/04 10:45:17;;;;;;;5.70;1.92;;;;;;;17.80;74.80;100941.06;5015696;28;20026;-76
2022/10/04 10:48:04;;;;;;;5.57;1.60;;;;;;;17.78;71.99;100946.56;5015422;28;20040;-75
2022/10/04 10:50:57;;;;;;;3.42;1.27;;;;;;;17.69;71.34;100952.63;5015600;28;20033;-75
2022/10/04 10:53:56;;;;;;;7.38;1.33;;;;;;;17.65;69.99;100957.88;5015567;28;20026;-76
2022/10/04 10:56:35;;;;;;;4.40;1.50;;;;;;;17.50;70.72;100960.25;5004524;28;20034;-76
2022/10/04 10:59:23;;;;;;;5.85;2.15;;;;;;;17.40;71.00;100956.03;5014159;28;20030;-75
2022/10/04 11:02:16;;;;;;;7.88;1.80;;;;;;;17.31;72.81;100956.28;5015470;28;20045;-76
2022/10/04 11:05:14;;;;;;;7.60;1.80;;;;;;;17.24;74.04;100951.03;5013850;28;20097;-77
2022/10/04 11:07:51;;;;;;;6.18;2.10;;;;;;;17.24;75.75;100953.94;5015369;28;20040;-76
2022/10/04 11:10:54;;;;;;;4.03;1.70;;;;;;;17.28;76.19;100948.69;5013765;28;20033;-76
2022/10/04 11:13:36;;;;;;;9.13;2.45;;;;;;;17.21;73.49;100952.88;5013847;28;20032;-75
2022/10/04 11:16:20;;;;;;;8.00;1.52;;;;;;;17.11;71.35;100959.41;5014098;28;20105;-75
2022/10/04 11:19:14;;;;;;;5.97;2.03;;;;;;;17.06;71.65;100954.41;4997740;28;20064;-76
2022/10/04 11:22:06;;;;;;;6.47;1.30;;;;;;;16.99;70.37;100958.63;5013453;28;20422;-76
2022/10/04 11:25:05;;;;;;;4.85;1.42;;;;;;;16.87;71.92;100954.91;5013588;28;20064;-75
2022/10/04 11:27:42;;;;;;;7.85;1.55;;;;;;;16.74;73.57;100939.41;5014498;28;20041;-76
2022/10/04 11:30:22;;;;;;;7.90;2.03;;;;;;;16.69;75.07;100943.84;5013140;28;20383;-75
2022/10/04 11:33:13;;;;;;;7.90;1.65;;;;;;;16.56;73.49;100955.06;5012982;28;20471;-77
2022/10/04 11:35:56;;;;;;;7.55;1.33;;;;;;;16.40;73.62;100961.56;5014296;28;20475;-77
2022/10/04 11:38:28;;;;;;;6.50;1.63;;;;;;;16.31;76.63;100942.34;5013265;28;20030;-77
2022/10/04 11:41:30;;;;;;;10.52;1.73;;;;;;;16.28;78.37;100948.38;5014511;28;20030;-77
2022/10/04 11:44:25;;;;;;;11.52;2.33;;;;;;;16.33;77.21;100956.28;5012454;28;20032;-76
2022/10/04 11:46:56;;;;;;;8.68;1.30;;;;;;;16.32;75.77;100951.81;4996866;28;20492;-77
2022/10/04 11:49:46;;;;;;;7.85;1.08;;;;;;;16.21;76.47;100961.19;5012795;28;20030;-76
2022/10/04 11:52:29;;;;;;;3.88;1.17;;;;;;;16.27;79.06;100956.25;5014289;28;20037;-77
2022/10/04 11:55:23;;;;;;;7.32;2.15;;;;;;;16.29;78.10;100956.53;5014449;28;20034;-76
2022/10/04 11:58:18;;;;;;;4.18;1.10;;;;;;;16.28;77.88;100959.91;5014170;28;20084;-75
2022/10/04 12:01:10;;;;;;;5.57;1.10;;;;;;;16.51;75.55;100967.34;5013879;28;20044;-77
2022/10/04 12:04:13;;;;;;;5.55;1.50;;;;;;;16.61;73.27;100977.41;5014282;28;20041;-76
2022/10/04 12:06:50;;;;;;;12.35;1.85;;;;;;;16.74;69.73;100977.72;4972759;28;20046;-75
2022/10/04 12:09:52;;;;;;;5.95;1.40;;;;;;;16.89;69.42;100977.50;5008531;28;20044;-75
2022/10/04 12:12:35;;;;;;;4.07;1.23;;;;;;;17.00;69.71;100968.84;5009844;28;20053;-76
2022/10/04 12:15:26;;;;;;;5.38;3.55;;;;;;;17.02;72.80;100962.56;5013585;28;20037;-77
2022/10/04 12:18:29;;;;;;;3.35;1.55;;;;;;;17.07;72.77;100959.69;5013995;28;20029;-77
2022/10/04 12:21:15;;;;;;;4.45;1.25;;;;;;;17.17;75.04;100957.31;5014304;28;20444;-76
2022/10/04 12:23:47;;;;;;;4.28;1.30;;;;;;;17.17;74.18;100952.34;5012426;28;20029;-76